Timeline UpdatesTrip UpdatesNews PostsPvt Posts♥♥Travel TipsAdmin PostsConv PostsFollowed PostsChat RequestsBlog PostsPNR Posts

Disclaimer
Search
 
 
Thu Oct 23, 2014 14:56:47 ISTHomeTrainsΣChainsAtlasPNRForumGalleryNewsFAQTripsMembersLoginFeedback
No Recent News for this Train
Other Trains in the News **new
Latest...
.
Fri Feb 28, 2014 (07:32PM)
⇐ Return Journey: Train# 19216

19215/Saurashtra Express

Time-Table HAS CHANGED.
Sep 03 2014 (10:13PM)
Change Departure Station:
Change Arrival Station:
Post a Train Travel TipPost a Train Travel Tip **new
Post a Comment/Question/Picture/VideoPost a Comment/Question/Picture/Video
Pantry/Catering
✕ NO Pantry Car
✓ Catering Avbl
RSA - Rake Sharing
Rake/Coach Composition
ENG - SLR - GEN - GEN - GEN - FC1 - B1 - S4 - S3 - S2 - S1 - LD - GEN - RMS - GEN - GEN - GEN - SLR - Milk van
Loco
BCT-ADI: BRC WAP-4/ ADI-PBR: VTA WDM-3A
News    PNR    Forum    Time-Table    Availability    Fare Chart    Map    Arr/Dep History    Trips    Gallery    ΣChains    X/O    Timeline    
Travel Time: 5h 16m    20 halts    Distance: 259 km    Avg Speed: 49 km/hr
Type: Mail/Express
Zone: WR/Western
Departs @ 08:20 (Avg on time)
Platform# 3
SMTWTFS
Mumbai Central/BCT 
Arrives @ 13:36 (Avg 15m late)
Platform# 1
SMTWTFS
Udhna Junction/UDN 

20 halts. 56 intermediate Stations between Mumbai Central and Udhna Junction

Show ALL intermediate Stations  Show Old Time-Table

#TrkCodeStation NameX/OArrivesAvgDepartsAvgHaltPFDay#KmSpeedElevZoneAddress
1/==/BCTMumbai Central (9)»  -08:20+0310.0363mWRMumbai 400008, Maharashtra
2/==/DDRMumbai Dadar Western (6)  08:30+408:32+52m315.9556mWRMumbai, Maharashtra
3/==/BVIMumbai Borivali (8)X  09:00 08:58+809:02+72 4m4129.75019mWRMumbai - 400092, Maharashtra
4/==/BSRVasai Road (7)  09:25 09:23+409:27+32 4m4147.1467mWRVasai 401202, Maharashtra
5/==/VRVirar (8)  09:38+409:40+52m3155.5656mWRDist. Palghar, Maharashtra
6/==/SAHSaphale (2)X  09:55+909:57+92m1171.8748mWRDist. Palghar, Maharashtra
7/==/PLGPalghar (3)X  10:09+1010:11+102m--186.66819mWRPalghar, Maharashtra
8/==/BORBoisar (3)X  10:21+1110:23+112m2197.96217mWRBoisar Tel.no-02525-266626, Maharashtra
9/==/DRDDahanu Road (5)X  10:43 10:44+1010:45 10:46+102m--1119.67412mWRDahanu, Maharashtra
10/==/GVDGholvad (4)X  10:55+1110:57+102m--1130.86914mWRGholvad, Maharashtra
11/==/UBRUmbargam Road (3)  11:08 11:05+1111:10 11:07+112m11139.94030mWRUmbergaon, Gujarat
12/==/SJNSanjan (3)X  11:19 11:15+1011:21 11:17+102m--1145.37722mWRSanjan, Gujarat
13/==/BLDBhilad (3)X11:34 11:26+1111:36 11:29+112 3m--1156.96233mWRBhilad, Gujarat
14/==/VAPIVapi (3)X  11:40+1111:42+122m11168.14827mWRVapi, Gujarat
15/==/UVDUdvada (3)X  11:54+1011:56+102m--1177.76018mWRUdvada, Gujarat
16/==/PADPardi (3)  12:02+1012:04+102m--1183.74319mWRValsad, Gujarat
17/==/BLValsad (3)X  12:23 12:19+512:25 12:24+92 5m11194.46015mWRValsad, Gujarat
18/==/BIMBilimora Junction (4)X  12:45 12:42+612:47 12:44+72m11212.35611mWRBilimora, Gujarat
19/==/AMLAmalsad (3)  12:53 12:50+812:55 12:52+82m--1217.99412mWRAmalsad, Gujarat
20/==/NVSNavsari (3)X  13:08 13:02+1213:10 13:07+112 5m11233.55114mWRNavsari, Gujarat
21/==/MRLMaroli (3)X  13:21 13:17+1013:23 13:20+102 3m11241.96415mWRMaroli, Gujarat
22/==/UDNUdhna Junction (3)•XO  13:40 13:36+1513:42 13:38+162m11259.1916mWRUdhna 394210, Gujarat
23/==/STSurat (4)X  14:10 14:05+214:15+25 10m11263.15919mWRSurat 395001, Gujarat
24/==/SYNSayan (3)  14:29+1114:31+112m--1276.88521mWRSayan Satellite town, Gujarat
25/==/KIMKim (2)X  14:38+1214:40+122m--1286.75818mWRNH 8, Gujarat
26/==/KSBKosamba Junction (3)X  14:48+1314:50+132m--1294.57130mWRKosamba, Gujarat
27/==/PAOPanoli (3)  14:57+1514:59+142m--1302.76929mWRPanoli, Gujarat
28/==/AKVAnkleshwar Junction (4)  15:08+1515:10+152m11313.04319mWRAnkleshwar, Gujarat
29/==/BHBharuch Junction (5)  15:23+1415:25+142m31322.46619mWRBharuch, Gujarat
30/==/NIUNabipur (3)X  15:36+1715:38+162m--1334.48024mWRNabipur, Gujarat
31/==/PLJPalej (4)X  15:48+1815:50+182m--1347.88329mWRPalej, Gujarat
32/==/MYGMiyagam Karjan (2)  16:01+2016:03+192m21363.07029mWRKarjan, Gujarat
33/==/ITAItola (4)  16:13+2016:15+202m--1374.64827mWRNational Highway 8 Vadodara, Gujarat
34/==/VSVishvamitri (4)XO  16:34+1816:36+182m--1389.9930mWRVadodara, Gujarat
35/==/BRCVadodara Junction (7)X  16:55+1117:00+135m41392.95036mWRVadodara 390005, Gujarat
36/==/VDAVasad Junction (3)X  17:24+1217:26+122m21413.15240mWRVasad, Gujarat
37/==/ANNDAnand Junction (6)  17:44+1517:46+162m--1428.65644mWRAnand, Gujarat
38/--/KBRVKanjari Boriyavi Junction (4)X  17:54+2517:56+242m--1436.15539mWRKanjari, Gujarat
39/==/NDNadiad Junction (4)O  18:08+1118:10+122m--1447.15037mWRNadiad, Gujarat
40/==/MHDMahemdavad Kheda Road (4)XO  18:31+418:33+32m31464.65737mWRMahemdavad, Gujarat
41/==/BJDBarejadi Nandej (3)O  18:45+418:47+42m--1476.03542mWRBareja-Barejadi Rd, Gujarat
42/==/MANManinagar (2)XO  19:21 19:10+019:23 19:12+02m11489.5750mWRAhmadabad, Gujarat
43/==/ADIAhmedabad Junction (12)XO19:40+920:00+1220m61492.61951mWRAhmedabad, Gujarat
44/==/SBTSabarmati Junction (3) new halt!!  20:17+1420:19+142m--1498.03852mWRAhmedabad, Gujarat
45/==|CLDYChandlodiya  20:28+1420:30+142m--1503.76859mWRAhmedabad, Gujarat
46|==|ABDAmbli RoadX  20:35+1420:37+152m--1509.47050mWRAhmedabad, Gujarat
47|==|SAUSanand  20:47+1720:49+172m--1521.05840mWRSanand, Gujarat
48|==|CEChharodiX  21:00+1821:02+182m--1531.77029mWRSH 17, Gujarat
49|==|JKAJakhvadaX  21:14+1821:16+182m--1545.63031mWRState Highway 17, Gujarat
50|==|VGViramgam Junction (5)X  21:41+821:43+102m11558.05129mWRViramgam, Gujarat
51!=-|SUNRSurendranagar Junction (4)  22:58 23:00+2123:00 23:05+202 5m11623.56872mWRSurendra Nagar, Gujarat
52|--|THANThan Junction (3)  23:45 23:47+2423:47 23:49+262m11671.261138mWRThangadh, Gujarat
53|--|WKRWankaner Junction (4)X  00:13 00:15+2800:15 00:20+272 5m--2697.84387mWRWankaner, Gujarat
54|--|RJTRajkot Junction (5)X  01:18+1301:24+156m32739.665128mWRRajkot, Gujarat
55|--|HAPAHapa (3)X  02:32 02:34+1002:34 02:36+112m--2815.54316mWRJamnagar, Gujarat
56|--|JAMJamnagar (2)X  02:46 02:48+1002:48 02:53+82 5m--2824.15014mWRJamnagar, Gujarat
57|--|LPJLalpur Jam  03:44 03:46+1203:46 03:47+142 1m--2868.25776mWRLalpur, Gujarat
58|--|GOPGop Jam  04:03 04:05+1404:05 04:06+142 1m--2885.262126mWRState Highway 27, Gujarat
59|--|BNVDBhanvad  04:22 04:24+1404:24 04:25+142 1m--2903.75755mWRBhanvad, Gujarat
60|--|WSJWansjaliya  04:44+1504:45+151m--2921.96055mWRTarsai - Vansjaliya, Gujarat
61|--|SKRSakhpur  04:50 04:52-04:52 04:53-2 1m--2928.93055mWRto railway station, Gujarat
62|--|RWORanavav  05:18 05:20+605:20 05:21+92 1m--2942.22837mWRRanavav, Gujarat
63|--|PBRPorbandar  05:50-3-12955.5-7mWRPorbandar, Gujarat
Scroll to Top
Scroll to Bottom